createdAt,value
2023-08-16T00:01:00.481Z,100296.72
2023-08-16T00:11:04.041Z,100303.09
2023-08-16T00:21:07.050Z,100310.27
2023-08-16T00:31:10.032Z,100316.75
2023-08-16T00:41:14.317Z,100318.63
2023-08-16T00:51:17.740Z,100326.17
2023-08-16T01:01:21.125Z,100330.71
2023-08-16T01:11:30.434Z,100328.55
2023-08-16T01:21:38.446Z,100326.58
2023-08-16T01:31:41.840Z,100327.02
2023-08-16T01:41:53.519Z,100319.48
2023-08-16T01:51:56.963Z,100313.14
2023-08-16T02:02:01.101Z,100315.84
2023-08-16T02:12:04.568Z,100330.73
2023-08-16T02:22:08.032Z,100349.33
2023-08-16T02:32:11.010Z,100349.51
2023-08-16T02:42:14.009Z,100360.64
2023-08-16T02:52:18.577Z,100359.16
2023-08-16T03:02:21.715Z,100358.55
2023-08-16T03:12:24.751Z,100350.42
2023-08-16T03:22:27.681Z,100342.50
2023-08-16T03:32:30.701Z,100356.23
2023-08-16T03:42:33.837Z,100360.65
2023-08-16T03:52:36.907Z,100367.51
2023-08-16T04:02:40.186Z,100380.42
2023-08-16T04:12:43.367Z,100393.48
2023-08-16T04:22:46.331Z,100399.54
2023-08-16T04:32:49.337Z,100406.33
2023-08-16T04:42:52.509Z,100406.31
2023-08-16T04:52:55.693Z,100410.52
2023-08-16T05:03:01.926Z,100415.27
2023-08-16T05:13:07.162Z,100429.23
2023-08-16T05:23:10.181Z,100429.73
2023-08-16T05:33:13.291Z,100441.01
2023-08-16T05:43:16.301Z,100450.05
2023-08-16T05:53:19.335Z,100456.84
2023-08-16T06:03:22.607Z,100460.15
2023-08-16T06:13:26.183Z,100466.22
2023-08-16T06:23:29.224Z,100471.71
2023-08-16T06:33:33.163Z,100471.65
2023-08-16T06:43:36.264Z,100468.11
2023-08-16T06:53:41.177Z,100469.45
2023-08-16T07:03:44.284Z,100469.59
2023-08-16T07:13:48.003Z,100468.20
2023-08-16T07:23:51.546Z,100462.85
2023-08-16T07:33:54.584Z,100458.97
2023-08-16T07:43:59.964Z,100465.11
2023-08-16T07:54:03.779Z,100474.33
2023-08-16T08:04:07.070Z,100477.53
2023-08-16T08:14:11.533Z,100474.95
2023-08-16T08:24:13.627Z,100480.24
2023-08-16T08:34:16.964Z,100481.49
2023-08-16T08:44:22.441Z,100481.05
2023-08-16T08:54:25.595Z,100485.30
2023-08-16T09:04:30.685Z,100488.08
2023-08-16T09:14:33.703Z,100493.48
2023-08-16T09:24:36.693Z,100502.69
2023-08-16T09:34:52.776Z,100501.39
2023-08-16T09:44:59.164Z,100492.77
2023-08-16T09:55:02.251Z,100484.05
2023-08-16T10:05:07.134Z,100477.38
2023-08-16T10:15:11.365Z,100484.05
2023-08-16T10:25:17.758Z,100475.80
2023-08-16T10:35:21.920Z,100478.63
2023-08-16T10:55:35.615Z,100473.70
2023-08-16T11:05:39.102Z,100464.27
2023-08-16T11:15:42.995Z,100457.41
2023-08-16T11:25:46.053Z,100456.57
2023-08-16T11:35:49.498Z,100461.91
2023-08-16T11:45:53.399Z,100464.96
2023-08-16T11:56:00.782Z,100458.29
2023-08-16T12:06:07.113Z,100441.36
2023-08-16T12:16:10.111Z,100433.88
2023-08-16T12:26:14.671Z,100424.20
2023-08-16T12:36:17.723Z,100422.13
2023-08-16T12:46:20.800Z,100418.89
2023-08-16T12:56:23.967Z,100418.95
2023-08-16T13:06:31.938Z,100411.78
2023-08-16T13:16:44.991Z,100405.67
2023-08-16T13:36:57.491Z,100395.94
2023-08-16T13:47:01.500Z,100390.98
2023-08-16T13:57:04.906Z,100384.42
2023-08-16T14:07:07.981Z,100380.55
2023-08-16T14:17:11.025Z,100379.39
2023-08-16T14:27:13.980Z,100377.02
2023-08-16T14:37:16.969Z,100376.26
2023-08-16T14:47:19.937Z,100369.55
2023-08-16T14:57:22.923Z,100362.58
2023-08-16T15:07:26.633Z,100367.63
2023-08-16T15:17:29.839Z,100367.14
2023-08-16T15:27:32.965Z,100359.11
2023-08-16T15:37:36.012Z,100352.85
2023-08-16T15:47:39.425Z,100332.94
2023-08-16T15:57:42.449Z,100326.02
2023-08-16T16:07:45.422Z,100313.33
2023-08-16T16:17:48.424Z,100332.23
2023-08-16T16:27:51.756Z,100349.06
2023-08-16T16:37:54.821Z,100366.08
2023-08-16T16:47:57.824Z,100360.14
2023-08-16T16:58:01.296Z,100348.55
2023-08-16T17:08:05.200Z,100335.77
2023-08-16T17:18:08.399Z,100338.20
2023-08-16T17:28:12.249Z,100348.98
2023-08-16T17:38:14.378Z,100350.70
2023-08-16T17:48:17.432Z,100347.60
2023-08-16T17:58:21.654Z,100354.88
2023-08-16T18:08:23.775Z,100348.99
2023-08-16T18:18:26.728Z,100348.31
2023-08-16T18:28:29.704Z,100364.77
2023-08-16T18:38:32.798Z,100372.40
2023-08-16T18:48:35.780Z,100377.67
2023-08-16T18:58:38.754Z,100385.73
2023-08-16T19:08:43.134Z,100395.73
2023-08-16T19:18:48.666Z,100412.39
2023-08-16T19:28:51.819Z,100426.59
2023-08-16T19:38:54.769Z,100430.15
2023-08-16T19:48:57.772Z,100437.11
2023-08-16T19:59:00.839Z,100424.89
2023-08-16T20:09:04.276Z,100403.98
2023-08-16T20:19:08.523Z,100413.36
2023-08-16T20:29:11.491Z,100416.17
2023-08-16T20:39:14.616Z,100405.09
2023-08-16T20:49:17.640Z,100415.27
2023-08-16T20:59:21.527Z,100423.21
2023-08-16T21:09:25.073Z,100434.13
2023-08-16T21:19:28.147Z,100452.27
2023-08-16T21:29:33.428Z,100498.39
2023-08-16T21:39:36.423Z,100507.20
2023-08-16T21:49:39.372Z,100514.19
2023-08-16T21:59:42.384Z,100501.92
2023-08-16T22:09:45.425Z,100518.08
2023-08-16T22:19:48.431Z,100542.02
2023-08-16T22:29:51.478Z,100535.64
2023-08-16T22:39:54.521Z,100536.28
2023-08-16T22:49:57.763Z,100538.15
2023-08-16T23:00:00.736Z,100511.25
2023-08-16T23:10:05.000Z,100491.02
2023-08-16T23:20:10.046Z,100484.19
2023-08-16T23:30:14.323Z,100492.20
2023-08-16T23:40:17.762Z,100494.14
2023-08-16T23:50:20.748Z,100486.45
